Time;durP1;ratioP1;P1;durP2;ratioP2;P2;SDS_P1;SDS_P2;PMS_P1;PMS_P2;Temp;Humidity;BMP_temperature;BMP_pressure;BME280_temperature;BME280_humidity;BME280_pressure;Samples;Min_cycle;Max_cycle;Signal;HPM_P1;HPM_P2
2021/05/27 00:02:26;;;;;;;15.05;9.28;;;;;;;12.83;100.00;99633.89;1720334;82;20972;-79
2021/05/27 00:04:53;;;;;;;13.68;9.33;;;;;;;12.81;100.00;99630.65;1717922;82;21565;-79
2021/05/27 00:07:20;;;;;;;18.17;10.13;;;;;;;12.79;100.00;99623.28;1721232;82;21491;-80
2021/05/27 00:09:47;;;;;;;12.50;10.43;;;;;;;12.79;100.00;99631.55;1718191;82;21060;-79
2021/05/27 00:12:13;;;;;;;13.93;9.45;;;;;;;12.77;100.00;99631.88;1716867;82;20945;-79
2021/05/27 00:14:40;;;;;;;15.70;9.93;;;;;;;12.74;100.00;99631.16;1720323;82;21053;-80
2021/05/27 00:17:07;;;;;;;13.40;8.75;;;;;;;12.71;100.00;99629.05;1716453;82;20939;-79
2021/05/27 00:19:35;;;;;;;11.95;9.38;;;;;;;12.67;100.00;99630.06;1712163;82;20960;-80
2021/05/27 00:22:03;;;;;;;16.87;9.60;;;;;;;12.64;100.00;99625.21;1726434;82;21017;-80
2021/05/27 00:24:30;;;;;;;14.23;9.28;;;;;;;12.62;100.00;99622.78;1719767;82;20970;-81
2021/05/27 00:26:56;;;;;;;12.13;9.83;;;;;;;12.60;100.00;99628.37;1729403;82;21101;-81
2021/05/27 00:29:23;;;;;;;13.43;9.73;;;;;;;12.58;100.00;99626.52;1728348;83;21517;-81
2021/05/27 00:31:50;;;;;;;15.00;9.53;;;;;;;12.56;100.00;99618.02;1722464;82;21099;-81
2021/05/27 00:34:16;;;;;;;12.47;9.75;;;;;;;12.54;100.00;99618.91;1727592;82;21097;-80
2021/05/27 00:36:43;;;;;;;14.07;9.03;;;;;;;12.53;100.00;99619.23;1725371;82;20891;-79
2021/05/27 00:39:10;;;;;;;14.68;9.58;;;;;;;12.52;100.00;99620.37;1767683;79;21001;-80
2021/05/27 00:41:37;;;;;;;12.10;9.60;;;;;;;12.49;100.00;99614.95;1761196;79;21615;-80
2021/05/27 00:44:22;;;;;;;15.03;9.35;;;;;;;12.49;100.00;99612.77;1745352;81;21114;-80
2021/05/27 00:46:51;;;;;;;11.03;8.55;;;;;;;12.48;100.00;99612.52;1729238;81;21683;-80
2021/05/27 00:49:20;;;;;;;12.95;9.05;;;;;;;12.46;100.00;99615.60;1724735;81;21602;-81
2021/05/27 00:51:47;;;;;;;15.15;9.15;;;;;;;12.45;100.00;99613.98;1741807;81;21026;-81
2021/05/27 00:54:14;;;;;;;13.48;8.70;;;;;;;12.44;100.00;99612.36;1762275;80;21037;-80
2021/05/27 00:56:41;;;;;;;17.42;9.65;;;;;;;12.45;100.00;99616.73;1746720;80;21057;-79
2021/05/27 00:59:08;;;;;;;15.55;9.28;;;;;;;12.44;100.00;99615.69;1751959;80;21009;-80
2021/05/27 01:01:36;;;;;;;11.00;8.58;;;;;;;12.43;100.00;99619.00;1765973;80;21066;-79
2021/05/27 01:04:03;;;;;;;11.48;8.70;;;;;;;12.38;100.00;99610.91;1753246;80;21069;-79
2021/05/27 01:06:30;;;;;;;11.33;8.25;;;;;;;12.35;100.00;99609.38;1756156;80;21532;-78
2021/05/27 01:08:56;;;;;;;11.68;8.40;;;;;;;12.30;100.00;99609.55;1760596;80;21086;-78
2021/05/27 01:11:23;;;;;;;11.80;8.10;;;;;;;12.24;100.00;99606.95;1764199;80;20879;-79
2021/05/27 01:13:51;;;;;;;11.33;8.33;;;;;;;12.16;100.00;99605.02;1736509;80;21596;-79
2021/05/27 01:16:22;;;;;;;13.65;8.38;;;;;;;12.12;100.00;99601.90;1764666;80;21045;-80
2021/05/27 01:18:50;;;;;;;17.60;8.38;;;;;;;12.05;100.00;99598.83;1770174;80;20959;-80
2021/05/27 01:21:19;;;;;;;10.75;8.10;;;;;;;11.98;100.00;99597.13;1708436;83;21173;-80
2021/05/27 01:23:45;;;;;;;14.23;8.58;;;;;;;11.90;100.00;99596.80;1695488;83;21125;-78
2021/05/27 01:26:13;;;;;;;8.88;7.70;;;;;;;11.84;100.00;99599.46;1718831;82;20994;-80
2021/05/27 01:28:42;;;;;;;12.73;8.45;;;;;;;11.77;100.00;99593.62;1699279;83;21671;-80
2021/05/27 01:31:09;;;;;;;15.35;8.75;;;;;;;11.69;100.00;99597.14;1727411;81;20917;-79
2021/05/27 01:33:37;;;;;;;14.70;9.05;;;;;;;11.63;100.00;99597.63;1719050;81;21032;-80
2021/05/27 01:36:06;;;;;;;13.58;9.33;;;;;;;11.54;100.00;99599.83;1758354;80;20998;-80
2021/05/27 01:38:33;;;;;;;17.00;8.88;;;;;;;11.48;100.00;99606.59;1765996;80;21506;-81
2021/05/27 01:41:02;;;;;;;23.38;10.32;;;;;;;11.43;100.00;99596.32;1699935;83;21642;-80
2021/05/27 01:43:31;;;;;;;20.27;9.80;;;;;;;11.37;100.00;99598.97;1749718;80;21575;-80
2021/05/27 01:45:58;;;;;;;14.43;10.38;;;;;;;11.32;100.00;99596.37;1761584;80;21782;-80
2021/05/27 01:48:25;;;;;;;13.18;9.48;;;;;;;11.26;100.00;99590.20;1740552;80;20969;-81
2021/05/27 01:50:52;;;;;;;12.47;9.43;;;;;;;11.20;100.00;99596.41;1722974;82;21032;-81
2021/05/27 01:53:23;;;;;;;16.97;9.88;;;;;;;11.16;100.00;99587.75;1725546;81;21535;-83
2021/05/27 01:55:50;;;;;;;13.03;8.80;;;;;;;11.11;100.00;99594.20;1739840;81;20979;-82
2021/05/27 01:58:18;;;;;;;11.70;9.15;;;;;;;11.07;100.00;99586.91;1732431;81;21037;-82
2021/05/27 02:00:46;;;;;;;12.18;9.08;;;;;;;11.04;100.00;99590.30;1723256;83;21121;-81
2021/05/27 02:03:13;;;;;;;12.93;8.93;;;;;;;10.99;100.00;99589.87;1720061;82;20923;-81
2021/05/27 02:05:43;;;;;;;13.32;8.38;;;;;;;10.96;100.00;99596.03;1719552;82;21041;-81
2021/05/27 02:08:11;;;;;;;15.50;9.25;;;;;;;10.92;100.00;99590.92;1737148;80;21061;-81
2021/05/27 02:10:40;;;;;;;14.95;9.00;;;;;;;10.89;100.00;99588.80;1738798;82;21680;-81
2021/05/27 02:13:08;;;;;;;12.07;8.48;;;;;;;10.84;100.00;99595.81;1747131;80;20961;-80
2021/05/27 02:15:35;;;;;;;13.88;8.65;;;;;;;10.80;100.00;99591.52;1726294;81;21053;-80
2021/05/27 02:18:01;;;;;;;13.62;7.75;;;;;;;10.78;100.00;99588.83;1742170;81;20914;-80
2021/05/27 02:20:28;;;;;;;11.45;8.38;;;;;;;10.76;100.00;99592.45;1733136;81;20965;-80
2021/05/27 02:22:55;;;;;;;13.28;8.98;;;;;;;10.73;100.00;99591.72;1723938;82;21043;-80
2021/05/27 02:25:26;;;;;;;13.70;8.75;;;;;;;10.69;100.00;99591.53;1723191;81;21032;-80
2021/05/27 02:27:55;;;;;;;11.75;8.68;;;;;;;10.68;100.00;99590.48;1760436;80;20915;-79
2021/05/27 02:30:25;;;;;;;9.70;8.03;;;;;;;10.65;100.00;99579.56;1745403;81;20942;-81
2021/05/27 02:32:53;;;;;;;12.95;8.83;;;;;;;10.67;100.00;99579.25;1729689;81;20947;-80
2021/05/27 02:35:20;;;;;;;14.13;8.83;;;;;;;10.66;100.00;99583.93;1717595;82;21072;-80
2021/05/27 02:37:46;;;;;;;14.50;8.98;;;;;;;10.66;100.00;99580.38;1717270;81;21080;-79
2021/05/27 02:40:14;;;;;;;13.95;8.45;;;;;;;10.66;100.00;99585.30;1745557;81;20918;-80
2021/05/27 02:42:42;;;;;;;13.65;8.88;;;;;;;10.67;100.00;99590.23;1743347;80;21046;-80
2021/05/27 02:45:12;;;;;;;15.90;8.43;;;;;;;10.68;100.00;99591.84;1738427;80;21029;-80
2021/05/27 02:47:41;;;;;;;19.42;8.93;;;;;;;10.66;100.00;99588.61;1740145;81;21094;-81
2021/05/27 02:50:09;;;;;;;23.27;9.85;;;;;;;10.65;100.00;99591.11;1731536;81;20981;-79
2021/05/27 02:52:38;;;;;;;12.03;8.78;;;;;;;10.64;100.00;99592.23;1745672;81;21612;-81
2021/05/27 02:55:05;;;;;;;13.90;7.97;;;;;;;10.65;100.00;99584.25;1744388;80;20903;-82
2021/05/27 02:57:33;;;;;;;16.10;8.53;;;;;;;10.68;100.00;99587.73;1744916;80;20879;-81
2021/05/27 03:00:06;;;;;;;11.08;8.25;;;;;;;10.68;100.00;99587.73;1748262;80;20927;-82
2021/05/27 03:02:35;;;;;;;13.85;8.38;;;;;;;10.71;100.00;99592.59;1753135;80;20986;-81
2021/05/27 03:05:03;;;;;;;21.87;9.63;;;;;;;10.73;100.00;99587.59;1733237;81;20931;-80
2021/05/27 03:07:35;;;;;;;10.58;8.50;;;;;;;10.75;100.00;99590.84;1734393;81;21505;-80
2021/05/27 03:10:05;;;;;;;17.85;9.50;;;;;;;10.78;100.00;99591.02;1723835;82;20930;-80
2021/05/27 03:12:32;;;;;;;13.88;8.33;;;;;;;10.82;100.00;99587.89;1727792;82;21101;-82
2021/05/27 03:15:00;;;;;;;16.30;9.55;;;;;;;10.89;100.00;99586.06;1724532;82;21022;-82
2021/05/27 03:17:28;;;;;;;14.95;9.85;;;;;;;10.95;100.00;99579.30;1722075;82;20993;-82
2021/05/27 03:19:56;;;;;;;16.57;10.30;;;;;;;11.00;100.00;99571.45;1712049;82;20922;-82
2021/05/27 03:22:24;;;;;;;14.47;9.63;;;;;;;11.06;100.00;99569.62;1720849;82;21005;-83
2021/05/27 03:24:52;;;;;;;21.77;9.85;;;;;;;11.15;100.00;99572.39;1715900;82;21686;-80
2021/05/27 03:27:19;;;;;;;15.85;9.90;;;;;;;11.27;100.00;99573.16;1709064;82;21034;-79
2021/05/27 03:29:46;;;;;;;16.90;10.68;;;;;;;11.37;100.00;99570.11;1724412;82;21027;-80
2021/05/27 03:32:14;;;;;;;14.95;9.98;;;;;;;11.48;100.00;99572.80;1722383;82;20997;-80
2021/05/27 03:34:41;;;;;;;14.93;10.40;;;;;;;11.61;100.00;99560.02;1688322;83;21101;-80
2021/05/27 03:37:08;;;;;;;23.42;13.05;;;;;;;11.73;100.00;99567.88;1735134;81;21083;-80
2021/05/27 03:39:36;;;;;;;24.05;14.83;;;;;;;11.86;100.00;99568.88;1715901;82;21603;-80
2021/05/27 03:42:04;;;;;;;41.83;21.12;;;;;;;12.00;100.00;99570.09;1719909;82;20919;-80
2021/05/27 03:44:32;;;;;;;35.95;21.37;;;;;;;12.14;100.00;99578.39;1664086;83;21544;-82
2021/05/27 03:46:59;;;;;;;27.87;18.17;;;;;;;12.31;100.00;99578.94;1676235;84;21498;-81
2021/05/27 03:49:26;;;;;;;32.42;17.62;;;;;;;12.46;100.00;99574.30;1668023;83;21677;-87
2021/05/27 03:51:52;;;;;;;23.42;16.60;;;;;;;12.62;100.00;99573.21;1699302;82;20976;-86
2021/05/27 03:54:19;;;;;;;26.57;15.13;;;;;;;12.76;100.00;99573.78;1717460;82;20967;-90
2021/05/27 03:56:47;;;;;;;20.85;15.18;;;;;;;12.94;100.00;99575.91;1728109;82;22284;-89
2021/05/27 04:02:06;;;;;;;19.25;14.95;;;;;;;13.26;100.00;99568.17;1721296;82;21478;-88
2021/05/27 04:07:30;;;;;;;18.62;14.73;;;;;;;13.53;100.00;99571.23;1715918;82;21027;-87
2021/05/27 04:09:56;;;;;;;22.07;16.48;;;;;;;13.67;100.00;99566.03;1661387;84;22571;-89
2021/05/27 04:15:20;;;;;;;23.32;17.23;;;;;;;13.94;100.00;99563.28;1717218;82;21857;-89
2021/05/27 04:17:50;;;;;;;27.75;18.98;;;;;;;14.11;100.00;99565.89;1720230;82;21617;-87
2021/05/27 04:20:19;;;;;;;32.58;19.17;;;;;;;14.27;100.00;99564.69;1726666;82;20946;-87
2021/05/27 04:22:47;;;;;;;24.67;18.70;;;;;;;14.42;100.00;99556.61;1672521;84;21125;-87
2021/05/27 04:25:14;;;;;;;27.15;17.12;;;;;;;14.56;100.00;99554.89;1722788;82;21026;-88
2021/05/27 04:27:41;;;;;;;23.73;16.15;;;;;;;14.69;100.00;99553.77;1664813;84;21605;-87
2021/05/27 04:30:18;;;;;;;26.20;16.02;;;;;;;14.80;100.00;99541.69;1672445;84;21126;-86
2021/05/27 04:33:12;;;;;;;18.05;13.10;;;;;;;14.91;100.00;99542.86;1673036;85;20999;-85
2021/05/27 04:35:38;;;;;;;18.57;13.32;;;;;;;15.03;100.00;99545.59;1670035;84;21013;-80
2021/05/27 04:38:10;;;;;;;17.50;12.78;;;;;;;15.15;100.00;99540.07;1678668;84;21073;-80
2021/05/27 04:40:41;;;;;;;19.95;14.60;;;;;;;15.26;100.00;99537.65;1685391;83;21164;-79
2021/05/27 04:43:08;;;;;;;18.37;14.07;;;;;;;15.34;100.00;99537.30;1714562;82;21005;-79
2021/05/27 04:45:35;;;;;;;18.67;15.05;;;;;;;15.45;100.00;99541.20;1710306;82;21652;-79
2021/05/27 04:48:04;;;;;;;16.23;12.63;;;;;;;15.55;100.00;99540.73;1737169;81;21751;-80
2021/05/27 04:50:31;;;;;;;18.12;13.93;;;;;;;15.66;100.00;99543.82;1735421;79;20998;-80
2021/05/27 04:52:59;;;;;;;14.87;11.00;;;;;;;15.79;100.00;99546.78;1719586;82;21200;-81
2021/05/27 04:55:25;;;;;;;14.60;11.65;;;;;;;15.91;100.00;99539.02;1716279;82;20985;-79
2021/05/27 04:57:52;;;;;;;14.05;10.58;;;;;;;15.98;100.00;99540.04;1712298;82;21062;-74
2021/05/27 05:00:22;;;;;;;12.85;9.95;;;;;;;16.02;100.00;99552.02;1721728;81;21089;-80
2021/05/27 05:02:49;;;;;;;15.18;10.28;;;;;;;16.06;100.00;99550.16;1745488;81;21009;-78
2021/05/27 05:05:16;;;;;;;11.88;9.68;;;;;;;16.16;100.00;99550.23;1745408;81;21092;-74
2021/05/27 05:07:43;;;;;;;13.18;10.55;;;;;;;16.27;100.00;99552.70;1722260;82;20934;-79
2021/05/27 05:10:13;;;;;;;11.40;9.35;;;;;;;16.36;99.43;99545.62;1719871;82;20991;-76
2021/05/27 05:12:46;;;;;;;11.57;10.18;;;;;;;16.44;99.25;99555.16;1722785;82;21021;-77
2021/05/27 05:15:28;;;;;;;12.35;9.38;;;;;;;16.52;97.77;99557.54;1725350;82;20879;-77
2021/05/27 05:18:04;;;;;;;12.65;8.45;;;;;;;16.59;97.09;99558.31;1720527;81;21137;-78
2021/05/27 05:20:43;;;;;;;9.45;7.80;;;;;;;16.74;97.14;99570.03;1682668;83;21002;-78
2021/05/27 05:23:11;;;;;;;10.08;8.28;;;;;;;16.89;95.60;99561.47;1731848;81;21665;-78
2021/05/27 05:25:39;;;;;;;9.50;7.72;;;;;;;17.05;95.16;99562.28;1731008;81;21050;-77
2021/05/27 05:28:06;;;;;;;10.65;7.67;;;;;;;17.16;93.53;99564.16;1725723;81;21848;-79
2021/05/27 05:30:33;;;;;;;10.15;6.85;;;;;;;17.20;91.57;99565.63;1747156;80;21104;-79
2021/05/27 05:32:59;;;;;;;10.68;8.05;;;;;;;17.26;90.85;99569.74;1733472;81;20922;-79
2021/05/27 05:35:27;;;;;;;12.78;8.40;;;;;;;17.36;89.94;99562.81;1726035;82;21481;-75
2021/05/27 05:37:53;;;;;;;12.13;8.20;;;;;;;17.45;88.88;99557.88;1717314;82;20962;-88
2021/05/27 05:40:23;;;;;;;12.25;6.90;;;;;;;17.44;87.86;99563.20;1712043;82;21070;-76
2021/05/27 05:42:50;;;;;;;9.95;6.08;;;;;;;17.43;86.02;99562.98;1738053;80;21156;-76
2021/05/27 05:45:18;;;;;;;10.43;6.05;;;;;;;17.43;86.21;99560.20;1697242;82;20979;-77
2021/05/27 05:47:46;;;;;;;13.53;6.92;;;;;;;17.53;86.68;99557.45;1739201;80;21512;-76
2021/05/27 05:50:13;;;;;;;6.87;5.92;;;;;;;17.64;84.48;99562.67;1723472;80;21014;-76
2021/05/27 05:52:41;;;;;;;11.40;6.20;;;;;;;17.74;84.13;99568.49;1738431;80;20951;-76
2021/05/27 05:55:09;;;;;;;37.45;8.75;;;;;;;17.87;83.79;99566.98;1718210;82;21188;-74
2021/05/27 05:57:35;;;;;;;10.48;6.25;;;;;;;18.02;83.56;99569.66;1723801;82;21516;-77
2021/05/27 06:00:05;;;;;;;13.30;7.05;;;;;;;18.18;82.05;99564.63;1733781;80;20930;-75
2021/05/27 06:02:33;;;;;;;14.50;6.22;;;;;;;18.31;81.56;99573.03;1719442;80;20902;-77
2021/05/27 06:05:00;;;;;;;10.80;6.30;;;;;;;18.40;82.06;99568.86;1726638;82;20958;-77
2021/05/27 06:07:35;;;;;;;12.07;6.83;;;;;;;18.45;81.17;99564.39;1719966;82;21098;-77
2021/05/27 06:10:02;;;;;;;10.75;6.03;;;;;;;18.51;81.01;99558.50;1703936;82;21553;-77
2021/05/27 06:12:29;;;;;;;14.98;5.53;;;;;;;18.53;80.52;99554.77;1686380;83;20947;-77
2021/05/27 06:14:55;;;;;;;39.80;9.58;;;;;;;18.56;79.79;99549.27;1717299;80;21694;-75
2021/05/27 06:17:22;;;;;;;20.52;7.75;;;;;;;18.61;79.94;99546.81;1727205;80;21054;-75
2021/05/27 06:19:49;;;;;;;15.38;7.87;;;;;;;18.66;78.35;99547.31;1718712;80;21843;-74
2021/05/27 06:22:26;;;;;;;47.58;13.15;;;;;;;18.67;78.20;99547.52;1764290;78;20961;-75
2021/05/27 06:24:55;;;;;;;23.35;9.55;;;;;;;18.68;78.76;99547.74;1776635;78;20878;-75
2021/05/27 06:27:21;;;;;;;19.27;8.23;;;;;;;18.72;78.42;99538.08;1758727;80;20903;-75
2021/05/27 06:29:48;;;;;;;40.03;10.80;;;;;;;18.77;78.16;99540.55;1756890;79;20902;-75
2021/05/27 06:32:14;;;;;;;24.52;10.13;;;;;;;18.81;77.75;99533.07;1765983;79;21836;-75
2021/05/27 06:34:41;;;;;;;15.45;8.28;;;;;;;18.88;77.71;99535.98;1699109;82;20895;-75
2021/05/27 06:37:08;;;;;;;13.90;7.87;;;;;;;18.95;76.94;99532.52;1714384;81;20990;-75
2021/05/27 06:39:35;;;;;;;12.20;7.60;;;;;;;19.02;77.74;99534.83;1679977;83;21177;-75
2021/05/27 06:42:02;;;;;;;12.35;8.35;;;;;;;19.16;75.85;99530.64;1773732;79;20914;-75
2021/05/27 06:44:28;;;;;;;17.90;8.35;;;;;;;19.24;75.75;99533.75;1751757;79;21096;-75
2021/05/27 06:46:54;;;;;;;12.60;9.38;;;;;;;19.32;75.63;99532.69;1774539;80;21437;-75
2021/05/27 06:49:21;;;;;;;11.70;8.38;;;;;;;19.47;73.35;99528.94;1774569;80;21002;-75
2021/05/27 06:51:48;;;;;;;23.42;8.88;;;;;;;19.60;74.22;99537.31;1687081;82;20967;-75
2021/05/27 06:54:14;;;;;;;29.42;9.80;;;;;;;19.70;73.66;99539.42;1698033;83;21537;-75
2021/05/27 06:56:43;;;;;;;16.23;9.53;;;;;;;19.69;72.67;99530.85;1704302;83;21182;-75
2021/05/27 06:59:10;;;;;;;12.23;9.25;;;;;;;19.64;72.15;99533.19;1688266;83;20934;-75
2021/05/27 07:01:36;;;;;;;17.05;10.03;;;;;;;19.56;72.58;99523.13;1717601;81;21497;-76
2021/05/27 07:04:04;;;;;;;17.00;9.50;;;;;;;19.59;73.66;99517.61;1727913;81;21611;-75
2021/05/27 07:06:30;;;;;;;12.73;9.30;;;;;;;19.72;73.01;99516.17;1716347;82;20934;-75
2021/05/27 07:08:57;;;;;;;12.28;8.43;;;;;;;19.87;72.60;99509.39;1718562;82;21851;-75
2021/05/27 07:11:24;;;;;;;12.50;7.87;;;;;;;19.95;71.50;99517.47;1717219;81;20906;-75
2021/05/27 07:13:51;;;;;;;14.13;9.55;;;;;;;19.99;71.50;99508.56;1747066;81;20859;-75
2021/05/27 07:16:17;;;;;;;10.90;7.53;;;;;;;20.02;71.63;99515.36;1744881;81;21620;-75
2021/05/27 07:18:44;;;;;;;9.73;7.03;;;;;;;20.16;71.80;99508.56;1698901;83;21013;-76
2021/05/27 07:21:10;;;;;;;13.13;7.87;;;;;;;20.26;69.71;99504.27;1750110;81;21152;-75
2021/05/27 07:23:37;;;;;;;15.32;7.83;;;;;;;20.35;70.49;99508.35;1756697;80;21627;-75
2021/05/27 07:26:04;;;;;;;15.18;9.40;;;;;;;20.48;69.28;99503.34;1750151;81;20859;-76
2021/05/27 07:28:32;;;;;;;15.80;9.08;;;;;;;20.64;69.55;99510.88;1754198;80;20986;-75
2021/05/27 07:31:00;;;;;;;24.10;10.50;;;;;;;20.93;69.87;99502.73;1760092;81;21056;-76
2021/05/27 07:33:29;;;;;;;11.83;7.62;;;;;;;21.21;68.52;99504.38;1711537;83;21085;-75
2021/05/27 07:35:55;;;;;;;11.88;8.58;;;;;;;21.47;67.74;99506.12;1751643;80;20915;-75
2021/05/27 07:38:22;;;;;;;10.40;7.00;;;;;;;21.60;65.53;99494.83;1703083;83;21528;-75
2021/05/27 07:40:48;;;;;;;9.25;6.60;;;;;;;21.52;64.35;99495.17;1682528;82;20982;-75
2021/05/27 07:43:15;;;;;;;9.08;7.22;;;;;;;21.36;66.70;99496.30;1753487;78;20901;-76
2021/05/27 07:45:41;;;;;;;13.60;6.87;;;;;;;21.30;66.61;99491.47;1769328;80;21046;-75
2021/05/27 07:48:08;;;;;;;13.62;7.70;;;;;;;21.35;64.40;99493.31;1731403;81;21679;-75
2021/05/27 07:50:35;;;;;;;12.65;6.90;;;;;;;21.28;64.70;99500.23;1699588;83;20919;-75
2021/05/27 07:53:01;;;;;;;10.35;7.22;;;;;;;21.13;65.82;99499.09;1698115;81;21080;-76
2021/05/27 07:55:28;;;;;;;10.05;6.83;;;;;;;20.91;67.63;99500.33;1670232;84;21734;-77
2021/05/27 07:57:55;;;;;;;10.82;7.15;;;;;;;20.75;68.08;99497.02;1722313;82;21550;-76
2021/05/27 08:00:21;;;;;;;10.72;7.22;;;;;;;20.58;68.93;99493.47;1729938;80;20907;-76
2021/05/27 08:02:48;;;;;;;10.82;7.47;;;;;;;20.44;69.56;99496.92;1742782;80;20932;-75
2021/05/27 08:05:15;;;;;;;17.15;8.93;;;;;;;20.36;70.71;99498.80;1693527;82;20977;-76
2021/05/27 08:07:42;;;;;;;15.32;12.80;;;;;;;20.28;70.37;99490.75;1742780;82;20918;-75
2021/05/27 08:10:10;;;;;;;13.18;10.48;;;;;;;20.17;70.04;99496.83;1735316;80;21012;-76
2021/05/27 08:12:37;;;;;;;56.88;12.53;;;;;;;20.12;71.03;99499.36;1688296;82;21101;-76
2021/05/27 08:15:06;;;;;;;48.50;13.78;;;;;;;20.09;71.14;99510.67;1722912;81;20891;-76
2021/05/27 08:17:33;;;;;;;48.52;14.40;;;;;;;20.07;71.15;99508.86;1701241;82;20938;-75
2021/05/27 08:20:01;;;;;;;23.05;9.93;;;;;;;20.03;71.87;99508.61;1774328;79;20965;-76
2021/05/27 08:22:27;;;;;;;16.85;10.13;;;;;;;19.98;71.87;99506.16;1744802;79;21616;-75
2021/05/27 08:24:55;;;;;;;40.67;10.43;;;;;;;19.92;71.71;99506.27;1684377;82;20891;-75
2021/05/27 08:27:21;;;;;;;44.80;10.08;;;;;;;19.86;71.87;99501.62;1752075;81;20895;-76
2021/05/27 08:29:47;;;;;;;26.52;7.53;;;;;;;19.82;72.00;99503.56;1723768;81;21046;-75
2021/05/27 08:32:14;;;;;;;17.77;6.53;;;;;;;19.76;71.99;99509.26;1743555;81;21069;-76
2021/05/27 08:34:42;;;;;;;22.58;7.60;;;;;;;19.68;72.27;99506.97;1742996;81;21162;-77
2021/05/27 08:37:09;;;;;;;42.55;9.05;;;;;;;19.59;72.14;99505.08;1676631;82;21072;-76
2021/05/27 08:39:36;;;;;;;30.37;8.23;;;;;;;19.52;73.03;99505.57;1693181;83;21619;-76
2021/05/27 08:42:02;;;;;;;32.13;7.83;;;;;;;19.49;73.60;99507.09;1732652;81;21594;-75
2021/05/27 08:44:28;;;;;;;31.10;7.20;;;;;;;19.45;73.58;99504.26;1755149;80;21025;-75
2021/05/27 08:46:55;;;;;;;49.35;10.60;;;;;;;19.40;73.92;99507.95;1695287;83;21013;-76
2021/05/27 08:49:21;;;;;;;52.15;9.00;;;;;;;19.35;74.63;99509.08;1687398;83;21092;-75
2021/05/27 08:51:48;;;;;;;53.20;22.48;;;;;;;19.33;75.19;99506.46;1691003;83;21158;-74
2021/05/27 08:54:15;;;;;;;30.45;14.28;;;;;;;19.33;75.96;99512.02;1731773;81;21026;-78
2021/05/27 08:56:41;;;;;;;13.45;6.72;;;;;;;19.34;76.28;99506.67;1726699;82;21700;-78
2021/05/27 08:59:08;;;;;;;12.05;5.83;;;;;;;19.35;75.97;99506.89;1747873;80;21714;-76
2021/05/27 09:01:57;;;;;;;11.18;5.10;;;;;;;19.35;75.44;99509.67;1740353;80;21044;-78
2021/05/27 09:04:24;;;;;;;6.75;4.33;;;;;;;19.32;75.52;99510.42;1753313;79;21037;-78
2021/05/27 09:06:52;;;;;;;8.10;4.17;;;;;;;19.32;75.33;99510.42;1750976;80;20945;-76
2021/05/27 09:09:19;;;;;;;10.90;4.45;;;;;;;19.31;75.40;99511.59;1747329;80;21162;-76
2021/05/27 09:11:48;;;;;;;13.15;4.70;;;;;;;19.30;75.55;99512.77;1741472;78;21016;-73
2021/05/27 09:14:15;;;;;;;17.87;5.10;;;;;;;19.28;75.85;99505.39;1749498;80;21092;-74
2021/05/27 09:16:58;;;;;;;19.95;9.90;;;;;;;19.27;76.26;99502.39;1748245;80;20978;-73
2021/05/27 09:19:24;;;;;;;18.50;6.85;;;;;;;19.27;76.47;99506.56;1728014;81;21564;-75
2021/05/27 09:21:53;;;;;;;18.50;8.35;;;;;;;19.25;76.31;99498.59;1708272;82;21044;-77
2021/05/27 09:24:46;;;;;;;12.60;5.55;;;;;;;19.21;76.34;99493.56;1728816;81;21808;-76
2021/05/27 09:27:13;;;;;;;21.25;5.65;;;;;;;19.19;77.11;99495.11;1737484;79;21160;-76
2021/05/27 09:29:45;;;;;;;8.53;4.50;;;;;;;19.13;77.66;99494.04;1711381;80;21051;-76
2021/05/27 09:32:12;;;;;;;8.23;4.62;;;;;;;19.10;77.96;99502.33;1715873;80;20886;-76
2021/05/27 09:34:51;;;;;;;14.75;5.50;;;;;;;19.06;78.66;99502.89;1757350;80;20998;-76
2021/05/27 09:37:31;;;;;;;15.75;6.17;;;;;;;19.01;79.91;99505.98;1737028;81;21074;-74
2021/05/27 09:39:59;;;;;;;14.28;7.53;;;;;;;18.90;81.56;99512.77;1738323;80;21013;-75
2021/05/27 09:42:27;;;;;;;11.85;7.15;;;;;;;18.72;83.36;99514.44;1747076;81;21060;-75
2021/05/27 09:44:53;;;;;;;14.95;5.92;;;;;;;18.46;85.18;99520.72;1714719;81;20990;-76
2021/05/27 09:47:33;;;;;;;12.15;6.40;;;;;;;18.23;87.26;99517.91;1747413;80;21135;-77
2021/05/27 09:50:04;;;;;;;11.25;6.33;;;;;;;17.98;88.55;99513.23;1734904;81;21131;-77
2021/05/27 09:52:43;;;;;;;11.15;6.60;;;;;;;17.80;90.96;99521.23;1734874;82;20966;-76
2021/05/27 09:55:14;;;;;;;8.98;7.12;;;;;;;17.59;93.05;99520.73;1738093;81;21090;-77
2021/05/27 09:57:43;;;;;;;15.58;8.13;;;;;;;17.39;94.86;99523.24;1724950;82;21636;-77
2021/05/27 10:00:27;;;;;;;11.25;7.58;;;;;;;17.24;96.38;99515.78;1728978;81;21048;-80
2021/05/27 10:02:54;;;;;;;14.50;8.25;;;;;;;17.16;97.68;99518.39;1736075;82;21131;-77
2021/05/27 10:05:21;;;;;;;14.68;8.43;;;;;;;17.09;98.94;99518.22;1727234;81;21224;-81
2021/05/27 10:07:51;;;;;;;30.68;10.82;;;;;;;17.05;100.00;99509.01;1723064;82;21058;-81
2021/05/27 10:10:21;;;;;;;36.00;12.73;;;;;;;17.05;100.00;99518.72;1719363;82;21034;-76
2021/05/27 10:12:51;;;;;;;33.83;13.03;;;;;;;17.05;100.00;99522.07;1725399;81;21176;-76
2021/05/27 10:15:20;;;;;;;18.30;10.55;;;;;;;17.05;100.00;99516.52;1742376;81;21110;-76
2021/05/27 10:17:46;;;;;;;11.10;8.30;;;;;;;17.07;100.00;99519.74;1724578;81;21668;-78
2021/05/27 10:20:18;;;;;;;10.50;7.62;;;;;;;17.08;100.00;99526.90;1730055;81;20942;-77
2021/05/27 10:22:45;;;;;;;16.27;9.08;;;;;;;17.07;100.00;99518.36;1723296;82;21082;-80
2021/05/27 10:25:14;;;;;;;11.38;7.55;;;;;;;17.03;100.00;99519.66;1736078;81;20866;-77
2021/05/27 10:27:42;;;;;;;11.85;7.85;;;;;;;16.98;100.00;99522.70;1682750;82;21180;-74
2021/05/27 10:30:10;;;;;;;9.88;7.03;;;;;;;16.93;100.00;99515.23;1749247;81;21036;-76
2021/05/27 10:32:40;;;;;;;15.25;9.55;;;;;;;16.90;100.00;99505.66;1744021;79;21561;-80
2021/05/27 10:35:07;;;;;;;17.20;10.43;;;;;;;16.89;100.00;99490.19;1749403;80;20925;-79
2021/05/27 10:37:41;;;;;;;23.95;11.43;;;;;;;16.91;100.00;99480.94;1726874;81;21576;-78
2021/05/27 10:40:32;;;;;;;32.00;12.47;;;;;;;16.97;100.00;99475.34;1736660;80;21103;-80
2021/05/27 10:43:08;;;;;;;27.80;12.25;;;;;;;17.03;100.00;99499.44;1739978;80;22278;-73
2021/05/27 10:45:36;;;;;;;19.20;10.60;;;;;;;17.07;100.00;99508.65;1746192;80;21107;-77
2021/05/27 10:48:23;;;;;;;9.98;8.23;;;;;;;17.08;100.00;99509.67;1729870;80;21061;-77
2021/05/27 10:51:06;;;;;;;13.62;8.38;;;;;;;17.05;100.00;99508.20;1750709;79;21110;-77
2021/05/27 10:53:42;;;;;;;13.65;9.03;;;;;;;17.03;100.00;99504.41;1748027;80;22138;-79
2021/05/27 10:56:15;;;;;;;11.97;9.30;;;;;;;17.02;100.00;99511.11;1723770;81;21009;-77
2021/05/27 10:58:53;;;;;;;7.87;6.25;;;;;;;17.04;100.00;99504.63;1734068;81;21049;-79
2021/05/27 11:01:37;;;;;;;10.20;8.18;;;;;;;17.14;100.00;99501.30;1742712;81;21066;-79
2021/05/27 11:04:08;;;;;;;12.55;8.73;;;;;;;17.44;100.00;99491.86;1726403;81;21556;-80
2021/05/27 11:06:40;;;;;;;8.28;5.83;;;;;;;17.88;100.00;99484.69;1753439;79;21105;-79
2021/05/27 11:09:16;;;;;;;3.65;3.25;;;;;;;18.30;100.00;99482.50;1750177;80;20934;-80
2021/05/27 11:12:05;;;;;;;3.02;1.70;;;;;;;18.77;100.00;99484.93;1739524;80;21091;-79
2021/05/27 11:14:38;;;;;;;4.03;1.82;;;;;;;19.14;100.00;99492.86;1762637;80;21216;-80
2021/05/27 11:17:14;;;;;;;5.58;2.12;;;;;;;19.41;95.01;99484.51;1732113;81;21081;-80
2021/05/27 11:20:02;;;;;;;4.58;1.80;;;;;;;19.62;92.93;99482.05;1731193;81;21626;-79
2021/05/27 11:22:42;;;;;;;3.50;2.00;;;;;;;19.69;89.05;99477.13;1726939;81;21058;-78
2021/05/27 11:25:16;;;;;;;1.92;1.70;;;;;;;19.75;90.21;99465.88;1732671;81;21085;-78
2021/05/27 11:27:53;;;;;;;1.87;1.77;;;;;;;19.87;90.46;99471.20;1683900;83;22343;-78
2021/05/27 11:30:40;;;;;;;3.15;2.08;;;;;;;19.85;88.50;99473.56;1709039;82;21065;-79
2021/05/27 11:33:29;;;;;;;3.60;2.10;;;;;;;19.73;86.40;99470.43;1704577;82;21984;-79
2021/05/27 11:35:54;;;;;;;2.80;2.47;;;;;;;19.56;86.96;99478.58;1712145;82;20878;-79
2021/05/27 11:38:23;;;;;;;5.92;3.40;;;;;;;19.42;87.56;99477.17;1677053;83;21113;-79